sensor_id;sensor_type;location;lat;lon;timestamp;pressure;altitude;pressure_sealevel;temperature;humidity
20013;BME280;10167;42.852;23.042;2022-09-17T00:01:43;94049.84;;;17.34;100.00
20013;BME280;10167;42.852;23.042;2022-09-17T00:04:12;94048.03;;;17.30;100.00
20013;BME280;10167;42.852;23.042;2022-09-17T00:06:41;94050.91;;;17.33;100.00
20013;BME280;10167;42.852;23.042;2022-09-17T00:09:11;94049.53;;;17.36;100.00
20013;BME280;10167;42.852;23.042;2022-09-17T00:11:42;94057.84;;;17.48;100.00
20013;BME280;10167;42.852;23.042;2022-09-17T00:14:13;94053.81;;;17.37;100.00
20013;BME280;10167;42.852;23.042;2022-09-17T00:16:45;94054.69;;;17.46;100.00
20013;BME280;10167;42.852;23.042;2022-09-17T00:19:16;94055.97;;;17.49;100.00
20013;BME280;10167;42.852;23.042;2022-09-17T00:21:46;94052.28;;;17.45;100.00
20013;BME280;10167;42.852;23.042;2022-09-17T00:24:17;94046.34;;;17.48;100.00
20013;BME280;10167;42.852;23.042;2022-09-17T00:26:47;94075.59;;;17.44;100.00
20013;BME280;10167;42.852;23.042;2022-09-17T00:29:16;94078.06;;;17.40;100.00
20013;BME280;10167;42.852;23.042;2022-09-17T00:31:45;94074.88;;;17.38;100.00
20013;BME280;10167;42.852;23.042;2022-09-17T00:34:14;94055.56;;;17.41;100.00
20013;BME280;10167;42.852;23.042;2022-09-17T00:36:43;94064.59;;;17.32;100.00
20013;BME280;10167;42.852;23.042;2022-09-17T00:39:12;94062.81;;;17.27;100.00
20013;BME280;10167;42.852;23.042;2022-09-17T00:41:44;94072.75;;;17.13;100.00
20013;BME280;10167;42.852;23.042;2022-09-17T00:44:38;94084.22;;;17.00;100.00
20013;BME280;10167;42.852;23.042;2022-09-17T00:47:12;94080.16;;;16.89;100.00
20013;BME280;10167;42.852;23.042;2022-09-17T00:49:43;94076.06;;;16.78;100.00
20013;BME280;10167;42.852;23.042;2022-09-17T00:52:14;94069.44;;;16.75;100.00
20013;BME280;10167;42.852;23.042;2022-09-17T00:54:48;94062.88;;;16.67;100.00
20013;BME280;10167;42.852;23.042;2022-09-17T00:57:21;94068.13;;;16.73;100.00
20013;BME280;10167;42.852;23.042;2022-09-17T00:59:50;94079.72;;;16.68;100.00
20013;BME280;10167;42.852;23.042;2022-09-17T01:02:19;94061.34;;;16.61;100.00
20013;BME280;10167;42.852;23.042;2022-09-17T01:04:48;94047.28;;;16.56;100.00
20013;BME280;10167;42.852;23.042;2022-09-17T01:07:28;94046.13;;;16.62;100.00
20013;BME280;10167;42.852;23.042;2022-09-17T01:10:07;94041.66;;;16.57;100.00
20013;BME280;10167;42.852;23.042;2022-09-17T01:12:53;94042.91;;;16.60;100.00
20013;BME280;10167;42.852;23.042;2022-09-17T01:15:33;94024.66;;;16.67;100.00
20013;BME280;10167;42.852;23.042;2022-09-17T01:18:13;94012.28;;;16.71;100.00
20013;BME280;10167;42.852;23.042;2022-09-17T01:24:20;94027.16;;;16.91;100.00
20013;BME280;10167;42.852;23.042;2022-09-17T01:30:06;94020.13;;;16.81;100.00
20013;BME280;10167;42.852;23.042;2022-09-17T01:32:43;94016.16;;;16.79;100.00
20013;BME280;10167;42.852;23.042;2022-09-17T01:35:17;94018.53;;;16.80;100.00
20013;BME280;10167;42.852;23.042;2022-09-17T01:37:55;94032.72;;;16.81;100.00
20013;BME280;10167;42.852;23.042;2022-09-17T01:40:28;94043.69;;;16.79;100.00
20013;BME280;10167;42.852;23.042;2022-09-17T01:43:04;94034.97;;;16.74;100.00
20013;BME280;10167;42.852;23.042;2022-09-17T01:45:38;94030.69;;;16.73;100.00
20013;BME280;10167;42.852;23.042;2022-09-17T01:48:14;94014.28;;;16.79;100.00
20013;BME280;10167;42.852;23.042;2022-09-17T01:50:49;94008.34;;;16.96;100.00
20013;BME280;10167;42.852;23.042;2022-09-17T01:53:23;93994.88;;;16.87;100.00
20013;BME280;10167;42.852;23.042;2022-09-17T01:55:54;93968.91;;;17.01;100.00
20013;BME280;10167;42.852;23.042;2022-09-17T01:58:28;93973.06;;;17.08;100.00
20013;BME280;10167;42.852;23.042;2022-09-17T02:01:01;93972.69;;;17.00;100.00
20013;BME280;10167;42.852;23.042;2022-09-17T02:03:37;93967.63;;;16.99;100.00
20013;BME280;10167;42.852;23.042;2022-09-17T02:06:10;93988.22;;;16.98;100.00
20013;BME280;10167;42.852;23.042;2022-09-17T02:08:44;94010.50;;;16.94;100.00
20013;BME280;10167;42.852;23.042;2022-09-17T02:11:14;93980.72;;;16.87;100.00
20013;BME280;10167;42.852;23.042;2022-09-17T02:13:46;93970.50;;;17.02;100.00
20013;BME280;10167;42.852;23.042;2022-09-17T02:16:20;93978.91;;;17.10;100.00
20013;BME280;10167;42.852;23.042;2022-09-17T02:18:54;93979.00;;;17.04;100.00
20013;BME280;10167;42.852;23.042;2022-09-17T02:21:29;93964.38;;;17.02;100.00
20013;BME280;10167;42.852;23.042;2022-09-17T02:24:05;93957.81;;;16.94;100.00
20013;BME280;10167;42.852;23.042;2022-09-17T02:26:38;93964.00;;;16.81;100.00
20013;BME280;10167;42.852;23.042;2022-09-17T02:29:12;93959.13;;;16.83;100.00
20013;BME280;10167;42.852;23.042;2022-09-17T02:31:43;93963.78;;;16.91;100.00
20013;BME280;10167;42.852;23.042;2022-09-17T02:34:14;93940.28;;;17.02;100.00
20013;BME280;10167;42.852;23.042;2022-09-17T02:36:43;93936.22;;;17.04;100.00
20013;BME280;10167;42.852;23.042;2022-09-17T02:39:13;93937.91;;;17.14;100.00
20013;BME280;10167;42.852;23.042;2022-09-17T02:41:45;93932.44;;;17.05;100.00
20013;BME280;10167;42.852;23.042;2022-09-17T02:44:29;93936.19;;;17.18;100.00
20013;BME280;10167;42.852;23.042;2022-09-17T02:47:12;93935.91;;;17.06;100.00
20013;BME280;10167;42.852;23.042;2022-09-17T02:49:58;93922.94;;;17.13;100.00
20013;BME280;10167;42.852;23.042;2022-09-17T02:52:39;93922.75;;;17.10;100.00
20013;BME280;10167;42.852;23.042;2022-09-17T02:55:17;93933.81;;;17.17;100.00
20013;BME280;10167;42.852;23.042;2022-09-17T02:57:51;93936.47;;;17.17;100.00
20013;BME280;10167;42.852;23.042;2022-09-17T03:00:21;93931.13;;;17.17;100.00
20013;BME280;10167;42.852;23.042;2022-09-17T03:02:57;93926.78;;;17.21;100.00
20013;BME280;10167;42.852;23.042;2022-09-17T03:05:28;93917.53;;;17.27;100.00
20013;BME280;10167;42.852;23.042;2022-09-17T03:07:59;93915.97;;;17.26;100.00
20013;BME280;10167;42.852;23.042;2022-09-17T03:10:28;93896.88;;;17.05;100.00
20013;BME280;10167;42.852;23.042;2022-09-17T03:12:59;93886.91;;;16.97;100.00
20013;BME280;10167;42.852;23.042;2022-09-17T03:15:28;93863.34;;;16.99;100.00
20013;BME280;10167;42.852;23.042;2022-09-17T03:17:57;93854.09;;;17.05;100.00
20013;BME280;10167;42.852;23.042;2022-09-17T03:20:26;93855.06;;;17.09;100.00
20013;BME280;10167;42.852;23.042;2022-09-17T03:22:56;93852.31;;;17.14;100.00
20013;BME280;10167;42.852;23.042;2022-09-17T03:25:25;93856.91;;;17.22;100.00
20013;BME280;10167;42.852;23.042;2022-09-17T03:27:55;93859.91;;;17.21;100.00
20013;BME280;10167;42.852;23.042;2022-09-17T03:30:24;93871.09;;;17.23;100.00
20013;BME280;10167;42.852;23.042;2022-09-17T03:32:53;93878.31;;;17.22;100.00
20013;BME280;10167;42.852;23.042;2022-09-17T03:35:22;93874.63;;;17.32;100.00
20013;BME280;10167;42.852;23.042;2022-09-17T03:37:51;93877.50;;;17.35;100.00
20013;BME280;10167;42.852;23.042;2022-09-17T03:40:21;93862.22;;;17.36;100.00
20013;BME280;10167;42.852;23.042;2022-09-17T03:42:50;93875.13;;;17.34;100.00
20013;BME280;10167;42.852;23.042;2022-09-17T03:45:19;93892.00;;;17.21;100.00
20013;BME280;10167;42.852;23.042;2022-09-17T03:47:47;93883.16;;;16.84;100.00
20013;BME280;10167;42.852;23.042;2022-09-17T03:50:16;93900.97;;;17.02;100.00
20013;BME280;10167;42.852;23.042;2022-09-17T03:52:45;93885.19;;;17.15;100.00
20013;BME280;10167;42.852;23.042;2022-09-17T03:55:14;93892.72;;;17.13;100.00
20013;BME280;10167;42.852;23.042;2022-09-17T03:57:44;93894.72;;;16.93;100.00
20013;BME280;10167;42.852;23.042;2022-09-17T04:00:14;93901.34;;;17.10;100.00
20013;BME280;10167;42.852;23.042;2022-09-17T04:02:43;93926.28;;;17.19;100.00
20013;BME280;10167;42.852;23.042;2022-09-17T04:05:12;93956.78;;;17.18;100.00
20013;BME280;10167;42.852;23.042;2022-09-17T04:07:41;93963.63;;;17.24;100.00
20013;BME280;10167;42.852;23.042;2022-09-17T04:10:10;93966.00;;;17.25;100.00
20013;BME280;10167;42.852;23.042;2022-09-17T04:12:39;93977.19;;;17.27;100.00
20013;BME280;10167;42.852;23.042;2022-09-17T04:15:09;93983.72;;;17.35;100.00
20013;BME280;10167;42.852;23.042;2022-09-17T04:17:38;94000.75;;;17.39;100.00
20013;BME280;10167;42.852;23.042;2022-09-17T04:20:08;93999.56;;;17.45;100.00
20013;BME280;10167;42.852;23.042;2022-09-17T04:22:37;94003.69;;;17.51;100.00
20013;BME280;10167;42.852;23.042;2022-09-17T04:25:06;93999.06;;;17.43;100.00
20013;BME280;10167;42.852;23.042;2022-09-17T04:27:36;94013.81;;;17.54;100.00
20013;BME280;10167;42.852;23.042;2022-09-17T04:30:06;94025.81;;;17.57;100.00
20013;BME280;10167;42.852;23.042;2022-09-17T04:32:36;94020.34;;;17.62;100.00
20013;BME280;10167;42.852;23.042;2022-09-17T04:35:05;94030.66;;;17.68;100.00
20013;BME280;10167;42.852;23.042;2022-09-17T04:37:34;94017.34;;;17.77;100.00
20013;BME280;10167;42.852;23.042;2022-09-17T04:40:04;94024.78;;;17.80;100.00
20013;BME280;10167;42.852;23.042;2022-09-17T04:42:34;94028.75;;;17.83;100.00
20013;BME280;10167;42.852;23.042;2022-09-17T04:45:03;94033.00;;;17.84;100.00
20013;BME280;10167;42.852;23.042;2022-09-17T04:47:32;94048.97;;;17.89;100.00
20013;BME280;10167;42.852;23.042;2022-09-17T04:50:03;94065.81;;;17.89;100.00
20013;BME280;10167;42.852;23.042;2022-09-17T04:52:32;94077.13;;;17.86;100.00
20013;BME280;10167;42.852;23.042;2022-09-17T04:55:01;94085.16;;;17.86;100.00
20013;BME280;10167;42.852;23.042;2022-09-17T04:57:30;94081.19;;;17.84;100.00
20013;BME280;10167;42.852;23.042;2022-09-17T04:59:59;94055.84;;;17.81;100.00
20013;BME280;10167;42.852;23.042;2022-09-17T05:02:29;94011.13;;;17.68;100.00
20013;BME280;10167;42.852;23.042;2022-09-17T05:04:59;94006.34;;;17.78;100.00
20013;BME280;10167;42.852;23.042;2022-09-17T05:07:30;94012.50;;;17.79;100.00
20013;BME280;10167;42.852;23.042;2022-09-17T05:09:59;94023.88;;;17.85;100.00
20013;BME280;10167;42.852;23.042;2022-09-17T05:12:29;94022.97;;;17.89;100.00
20013;BME280;10167;42.852;23.042;2022-09-17T05:15:00;94021.09;;;17.90;100.00
20013;BME280;10167;42.852;23.042;2022-09-17T05:17:29;94018.41;;;17.90;100.00
20013;BME280;10167;42.852;23.042;2022-09-17T05:19:58;94024.06;;;17.88;100.00
20013;BME280;10167;42.852;23.042;2022-09-17T05:22:30;94020.66;;;17.96;100.00
20013;BME280;10167;42.852;23.042;2022-09-17T05:24:59;94030.09;;;17.94;100.00
20013;BME280;10167;42.852;23.042;2022-09-17T05:27:28;94022.06;;;17.94;100.00
20013;BME280;10167;42.852;23.042;2022-09-17T05:29:57;94029.47;;;17.97;100.00
20013;BME280;10167;42.852;23.042;2022-09-17T05:32:26;94043.06;;;18.00;100.00
20013;BME280;10167;42.852;23.042;2022-09-17T05:34:55;94042.75;;;18.02;100.00
20013;BME280;10167;42.852;23.042;2022-09-17T05:37:23;94036.47;;;18.06;100.00
20013;BME280;10167;42.852;23.042;2022-09-17T05:39:54;94035.88;;;18.09;100.00
20013;BME280;10167;42.852;23.042;2022-09-17T05:42:22;94021.81;;;18.04;100.00
20013;BME280;10167;42.852;23.042;2022-09-17T05:44:51;94020.09;;;18.08;100.00
20013;BME280;10167;42.852;23.042;2022-09-17T05:47:20;94032.25;;;18.05;100.00
20013;BME280;10167;42.852;23.042;2022-09-17T05:49:49;94012.31;;;17.98;100.00
20013;BME280;10167;42.852;23.042;2022-09-17T05:52:17;94000.84;;;17.84;100.00
20013;BME280;10167;42.852;23.042;2022-09-17T05:54:46;94005.88;;;17.99;100.00
20013;BME280;10167;42.852;23.042;2022-09-17T05:57:17;94043.66;;;17.97;100.00
20013;BME280;10167;42.852;23.042;2022-09-17T05:59:46;94058.84;;;18.02;100.00
20013;BME280;10167;42.852;23.042;2022-09-17T06:02:15;94061.22;;;18.03;100.00
20013;BME280;10167;42.852;23.042;2022-09-17T06:04:45;94071.94;;;18.03;100.00
20013;BME280;10167;42.852;23.042;2022-09-17T06:07:13;94084.63;;;17.98;100.00
20013;BME280;10167;42.852;23.042;2022-09-17T06:09:42;94064.97;;;17.80;100.00
20013;BME280;10167;42.852;23.042;2022-09-17T06:12:11;94045.50;;;17.74;100.00
20013;BME280;10167;42.852;23.042;2022-09-17T06:14:41;94032.88;;;17.89;100.00
20013;BME280;10167;42.852;23.042;2022-09-17T06:17:10;94037.94;;;17.90;100.00
20013;BME280;10167;42.852;23.042;2022-09-17T06:19:39;94024.50;;;17.82;100.00
20013;BME280;10167;42.852;23.042;2022-09-17T06:22:08;94025.19;;;17.73;100.00
20013;BME280;10167;42.852;23.042;2022-09-17T06:24:37;94022.91;;;17.81;100.00
20013;BME280;10167;42.852;23.042;2022-09-17T06:27:06;94032.53;;;17.82;100.00
20013;BME280;10167;42.852;23.042;2022-09-17T06:29:34;94050.66;;;17.85;100.00
20013;BME280;10167;42.852;23.042;2022-09-17T06:32:06;94075.75;;;17.89;100.00
20013;BME280;10167;42.852;23.042;2022-09-17T06:34:37;94075.63;;;17.94;100.00
20013;BME280;10167;42.852;23.042;2022-09-17T06:37:06;94070.16;;;17.99;100.00
20013;BME280;10167;42.852;23.042;2022-09-17T06:39:35;94057.75;;;18.03;100.00
20013;BME280;10167;42.852;23.042;2022-09-17T06:42:04;94059.59;;;18.16;100.00
20013;BME280;10167;42.852;23.042;2022-09-17T06:44:33;94041.13;;;18.14;100.00
20013;BME280;10167;42.852;23.042;2022-09-17T06:47:02;94031.06;;;18.20;100.00
20013;BME280;10167;42.852;23.042;2022-09-17T06:49:33;94036.03;;;18.27;100.00
20013;BME280;10167;42.852;23.042;2022-09-17T06:52:02;94037.34;;;18.16;100.00
20013;BME280;10167;42.852;23.042;2022-09-17T06:54:31;94029.78;;;18.18;100.00
20013;BME280;10167;42.852;23.042;2022-09-17T06:57:00;94014.19;;;18.20;100.00
20013;BME280;10167;42.852;23.042;2022-09-17T06:59:29;93996.97;;;18.12;100.00
20013;BME280;10167;42.852;23.042;2022-09-17T07:01:58;93976.63;;;18.11;100.00
20013;BME280;10167;42.852;23.042;2022-09-17T07:04:27;93959.81;;;18.19;100.00
20013;BME280;10167;42.852;23.042;2022-09-17T07:06:57;93965.19;;;18.19;100.00
20013;BME280;10167;42.852;23.042;2022-09-17T07:09:26;93946.84;;;18.35;100.00
20013;BME280;10167;42.852;23.042;2022-09-17T07:11:55;93944.69;;;18.45;100.00
20013;BME280;10167;42.852;23.042;2022-09-17T07:14:25;93940.84;;;18.60;100.00
20013;BME280;10167;42.852;23.042;2022-09-17T07:16:54;93941.69;;;18.86;100.00
20013;BME280;10167;42.852;23.042;2022-09-17T07:19:23;93939.25;;;19.07;100.00
20013;BME280;10167;42.852;23.042;2022-09-17T07:21:51;93946.84;;;19.22;100.00
20013;BME280;10167;42.852;23.042;2022-09-17T07:24:22;93974.66;;;19.35;100.00
20013;BME280;10167;42.852;23.042;2022-09-17T07:26:56;93992.81;;;19.38;100.00
20013;BME280;10167;42.852;23.042;2022-09-17T07:29:25;93994.41;;;19.39;100.00
20013;BME280;10167;42.852;23.042;2022-09-17T07:31:54;93989.59;;;19.10;100.00
20013;BME280;10167;42.852;23.042;2022-09-17T07:34:24;93981.66;;;18.97;100.00
20013;BME280;10167;42.852;23.042;2022-09-17T07:36:55;93983.22;;;18.98;100.00
20013;BME280;10167;42.852;23.042;2022-09-17T07:39:26;93985.13;;;18.97;100.00
20013;BME280;10167;42.852;23.042;2022-09-17T07:41:55;93975.34;;;19.01;100.00
20013;BME280;10167;42.852;23.042;2022-09-17T07:44:24;93981.56;;;19.19;100.00
20013;BME280;10167;42.852;23.042;2022-09-17T07:46:53;93989.97;;;19.26;100.00
20013;BME280;10167;42.852;23.042;2022-09-17T07:49:22;93991.06;;;19.34;100.00
20013;BME280;10167;42.852;23.042;2022-09-17T07:51:51;93994.72;;;19.38;100.00
20013;BME280;10167;42.852;23.042;2022-09-17T07:54:21;93979.72;;;19.37;100.00
20013;BME280;10167;42.852;23.042;2022-09-17T07:56:51;93950.19;;;19.45;100.00
20013;BME280;10167;42.852;23.042;2022-09-17T07:59:20;93945.50;;;19.51;100.00
20013;BME280;10167;42.852;23.042;2022-09-17T08:01:49;93941.66;;;19.43;100.00
20013;BME280;10167;42.852;23.042;2022-09-17T08:04:19;93951.91;;;19.41;100.00
20013;BME280;10167;42.852;23.042;2022-09-17T08:06:48;93957.75;;;19.43;100.00
20013;BME280;10167;42.852;23.042;2022-09-17T08:09:17;93965.03;;;19.43;100.00
20013;BME280;10167;42.852;23.042;2022-09-17T08:11:46;93953.97;;;19.44;100.00
20013;BME280;10167;42.852;23.042;2022-09-17T08:14:24;93969.00;;;19.54;100.00
20013;BME280;10167;42.852;23.042;2022-09-17T08:16:55;93967.94;;;19.64;100.00
20013;BME280;10167;42.852;23.042;2022-09-17T08:19:24;93960.97;;;19.63;100.00
20013;BME280;10167;42.852;23.042;2022-09-17T08:21:55;93969.03;;;19.63;100.00
20013;BME280;10167;42.852;23.042;2022-09-17T08:24:24;93975.16;;;19.54;100.00
20013;BME280;10167;42.852;23.042;2022-09-17T08:26:53;93968.38;;;19.66;100.00
20013;BME280;10167;42.852;23.042;2022-09-17T08:29:24;93968.41;;;19.74;100.00
20013;BME280;10167;42.852;23.042;2022-09-17T08:31:53;93971.09;;;19.74;100.00
20013;BME280;10167;42.852;23.042;2022-09-17T08:34:22;93962.56;;;19.72;100.00
20013;BME280;10167;42.852;23.042;2022-09-17T08:36:51;93954.66;;;19.58;100.00
20013;BME280;10167;42.852;23.042;2022-09-17T08:39:19;93941.69;;;19.69;100.00
20013;BME280;10167;42.852;23.042;2022-09-17T08:41:51;93926.84;;;19.80;100.00
20013;BME280;10167;42.852;23.042;2022-09-17T08:44:32;93935.38;;;19.82;100.00
20013;BME280;10167;42.852;23.042;2022-09-17T08:47:14;93945.78;;;19.75;100.00
20013;BME280;10167;42.852;23.042;2022-09-17T08:49:50;93951.16;;;19.67;100.00
20013;BME280;10167;42.852;23.042;2022-09-17T08:55:36;93945.66;;;19.72;100.00
20013;BME280;10167;42.852;23.042;2022-09-17T08:58:24;93952.13;;;19.71;100.00
20013;BME280;10167;42.852;23.042;2022-09-17T09:01:07;93959.03;;;19.46;100.00
20013;BME280;10167;42.852;23.042;2022-09-17T09:03:51;93963.97;;;19.61;100.00
20013;BME280;10167;42.852;23.042;2022-09-17T09:06:26;93959.72;;;19.60;100.00
20013;BME280;10167;42.852;23.042;2022-09-17T09:08:59;93965.38;;;19.58;100.00
20013;BME280;10167;42.852;23.042;2022-09-17T09:11:30;93967.91;;;19.55;100.00
20013;BME280;10167;42.852;23.042;2022-09-17T09:14:05;93976.75;;;19.55;100.00
20013;BME280;10167;42.852;23.042;2022-09-17T09:16:38;93975.97;;;19.55;100.00
20013;BME280;10167;42.852;23.042;2022-09-17T09:19:17;93983.72;;;19.56;100.00
20013;BME280;10167;42.852;23.042;2022-09-17T09:21:59;93989.72;;;19.62;100.00
20013;BME280;10167;42.852;23.042;2022-09-17T09:24:38;94000.13;;;19.55;100.00
20013;BME280;10167;42.852;23.042;2022-09-17T09:27:15;94019.22;;;19.53;100.00
20013;BME280;10167;42.852;23.042;2022-09-17T09:29:56;94027.78;;;19.55;100.00
20013;BME280;10167;42.852;23.042;2022-09-17T09:32:49;94028.25;;;19.57;100.00
20013;BME280;10167;42.852;23.042;2022-09-17T09:35:22;94031.44;;;19.60;100.00
20013;BME280;10167;42.852;23.042;2022-09-17T09:37:56;94038.38;;;19.52;100.00
20013;BME280;10167;42.852;23.042;2022-09-17T09:40:36;94023.53;;;19.63;100.00
20013;BME280;10167;42.852;23.042;2022-09-17T09:43:16;94015.16;;;19.65;100.00
20013;BME280;10167;42.852;23.042;2022-09-17T09:46:05;94019.28;;;19.62;100.00
20013;BME280;10167;42.852;23.042;2022-09-17T09:48:43;94015.75;;;19.53;100.00
20013;BME280;10167;42.852;23.042;2022-09-17T09:51:24;94012.63;;;19.51;100.00
20013;BME280;10167;42.852;23.042;2022-09-17T09:54:08;93976.63;;;19.52;100.00
20013;BME280;10167;42.852;23.042;2022-09-17T09:56:52;93912.44;;;19.42;100.00
20013;BME280;10167;42.852;23.042;2022-09-17T09:59:23;93931.06;;;19.30;100.00
20013;BME280;10167;42.852;23.042;2022-09-17T10:01:52;93887.31;;;19.20;100.00
20013;BME280;10167;42.852;23.042;2022-09-17T10:04:25;93872.19;;;19.16;100.00
20013;BME280;10167;42.852;23.042;2022-09-17T10:06:59;93850.84;;;19.02;100.00
20013;BME280;10167;42.852;23.042;2022-09-17T10:09:30;93895.84;;;19.05;100.00
20013;BME280;10167;42.852;23.042;2022-09-17T10:12:03;93915.09;;;19.16;100.00
20013;BME280;10167;42.852;23.042;2022-09-17T10:14:33;93934.69;;;19.16;100.00
20013;BME280;10167;42.852;23.042;2022-09-17T10:17:17;93929.94;;;19.22;100.00
20013;BME280;10167;42.852;23.042;2022-09-17T10:20:13;93917.78;;;19.33;100.00
20013;BME280;10167;42.852;23.042;2022-09-17T10:22:49;93920.81;;;19.40;100.00
20013;BME280;10167;42.852;23.042;2022-09-17T10:25:31;93921.63;;;19.49;100.00
20013;BME280;10167;42.852;23.042;2022-09-17T10:28:01;93930.97;;;19.52;100.00
20013;BME280;10167;42.852;23.042;2022-09-17T10:30:31;93928.09;;;19.57;100.00
20013;BME280;10167;42.852;23.042;2022-09-17T10:33:15;93941.69;;;19.69;100.00
20013;BME280;10167;42.852;23.042;2022-09-17T10:36:04;93949.44;;;19.79;100.00
20013;BME280;10167;42.852;23.042;2022-09-17T10:38:35;93969.81;;;19.80;100.00
20013;BME280;10167;42.852;23.042;2022-09-17T10:41:13;93960.97;;;19.88;100.00
20013;BME280;10167;42.852;23.042;2022-09-17T10:43:43;93960.78;;;20.02;100.00
20013;BME280;10167;42.852;23.042;2022-09-17T10:46:15;93954.13;;;20.17;100.00
20013;BME280;10167;42.852;23.042;2022-09-17T10:48:58;93957.75;;;20.29;100.00
20013;BME280;10167;42.852;23.042;2022-09-17T10:51:35;93966.13;;;20.37;100.00
20013;BME280;10167;42.852;23.042;2022-09-17T10:54:13;93959.19;;;20.36;100.00
20013;BME280;10167;42.852;23.042;2022-09-17T10:56:51;93964.69;;;20.48;100.00
20013;BME280;10167;42.852;23.042;2022-09-17T10:59:40;93974.03;;;20.50;100.00
20013;BME280;10167;42.852;23.042;2022-09-17T11:02:35;93977.97;;;20.44;100.00
20013;BME280;10167;42.852;23.042;2022-09-17T11:05:27;93966.13;;;20.45;100.00
20013;BME280;10167;42.852;23.042;2022-09-17T11:08:05;93976.06;;;20.53;100.00
20013;BME280;10167;42.852;23.042;2022-09-17T11:10:40;93975.28;;;20.53;100.00
20013;BME280;10167;42.852;23.042;2022-09-17T11:13:19;93976.16;;;20.74;100.00
20013;BME280;10167;42.852;23.042;2022-09-17T11:16:13;93967.69;;;20.93;100.00
20013;BME280;10167;42.852;23.042;2022-09-17T11:18:48;93966.03;;;21.09;100.00
20013;BME280;10167;42.852;23.042;2022-09-17T11:21:32;93959.13;;;21.29;100.00
20013;BME280;10167;42.852;23.042;2022-09-17T11:27:20;93957.13;;;22.09;100.00
20013;BME280;10167;42.852;23.042;2022-09-17T11:30:03;93946.06;;;22.35;100.00
20013;BME280;10167;42.852;23.042;2022-09-17T11:32:54;93947.16;;;22.55;100.00
20013;BME280;10167;42.852;23.042;2022-09-17T11:35:31;93944.47;;;22.55;100.00
20013;BME280;10167;42.852;23.042;2022-09-17T11:38:04;93944.09;;;22.44;100.00
20013;BME280;10167;42.852;23.042;2022-09-17T11:40:38;93942.00;;;22.62;100.00
20013;BME280;10167;42.852;23.042;2022-09-17T11:43:17;93933.31;;;22.44;100.00
20013;BME280;10167;42.852;23.042;2022-09-17T11:45:56;93922.53;;;22.44;100.00
20013;BME280;10167;42.852;23.042;2022-09-17T11:48:35;93898.88;;;22.29;100.00
20013;BME280;10167;42.852;23.042;2022-09-17T11:51:17;93895.22;;;22.13;100.00
20013;BME280;10167;42.852;23.042;2022-09-17T11:53:50;93900.25;;;22.02;100.00
20013;BME280;10167;42.852;23.042;2022-09-17T11:56:26;93896.25;;;21.87;100.00
20013;BME280;10167;42.852;23.042;2022-09-17T12:01:33;93911.75;;;21.90;100.00
20013;BME280;10167;42.852;23.042;2022-09-17T12:04:25;93913.47;;;21.95;100.00
20013;BME280;10167;42.852;23.042;2022-09-17T12:07:01;93904.59;;;21.94;100.00
20013;BME280;10167;42.852;23.042;2022-09-17T12:09:36;93911.31;;;21.88;100.00
20013;BME280;10167;42.852;23.042;2022-09-17T12:12:15;93915.38;;;21.94;100.00
20013;BME280;10167;42.852;23.042;2022-09-17T12:15:12;93906.72;;;21.89;100.00
20013;BME280;10167;42.852;23.042;2022-09-17T12:17:45;93895.94;;;21.68;100.00
20013;BME280;10167;42.852;23.042;2022-09-17T12:20:22;93902.34;;;21.63;100.00
20013;BME280;10167;42.852;23.042;2022-09-17T12:22:53;93905.44;;;21.53;100.00
20013;BME280;10167;42.852;23.042;2022-09-17T12:25:23;93904.19;;;21.51;100.00
20013;BME280;10167;42.852;23.042;2022-09-17T12:27:58;93890.06;;;21.33;100.00
20013;BME280;10167;42.852;23.042;2022-09-17T12:30:29;93889.13;;;21.29;100.00
20013;BME280;10167;42.852;23.042;2022-09-17T12:33:12;93883.97;;;21.15;100.00
20013;BME280;10167;42.852;23.042;2022-09-17T12:35:55;93887.97;;;21.09;100.00
20013;BME280;10167;42.852;23.042;2022-09-17T12:38:54;93876.66;;;20.95;100.00
20013;BME280;10167;42.852;23.042;2022-09-17T12:41:38;93880.38;;;20.82;100.00
20013;BME280;10167;42.852;23.042;2022-09-17T12:44:21;93877.88;;;20.77;100.00
20013;BME280;10167;42.852;23.042;2022-09-17T12:47:16;93868.19;;;20.84;100.00
20013;BME280;10167;42.852;23.042;2022-09-17T12:50:01;93875.63;;;20.79;100.00
20013;BME280;10167;42.852;23.042;2022-09-17T12:52:42;93870.50;;;20.65;100.00
20013;BME280;10167;42.852;23.042;2022-09-17T12:55:33;93860.84;;;20.64;100.00
20013;BME280;10167;42.852;23.042;2022-09-17T12:58:12;93859.91;;;20.60;100.00
20013;BME280;10167;42.852;23.042;2022-09-17T13:00:51;93858.19;;;20.55;100.00
20013;BME280;10167;42.852;23.042;2022-09-17T13:03:25;93849.47;;;20.58;100.00
20013;BME280;10167;42.852;23.042;2022-09-17T13:06:13;93838.56;;;20.55;100.00
20013;BME280;10167;42.852;23.042;2022-09-17T13:09:31;93834.81;;;20.47;100.00
20013;BME280;10167;42.852;23.042;2022-09-17T13:12:23;93827.75;;;20.43;100.00
20013;BME280;10167;42.852;23.042;2022-09-17T13:15:02;93826.75;;;20.47;100.00
20013;BME280;10167;42.852;23.042;2022-09-17T13:17:38;93805.06;;;20.52;100.00
20013;BME280;10167;42.852;23.042;2022-09-17T13:20:20;93792.72;;;20.51;100.00
20013;BME280;10167;42.852;23.042;2022-09-17T13:22:51;93801.84;;;20.59;100.00
20013;BME280;10167;42.852;23.042;2022-09-17T13:25:22;93789.44;;;20.46;100.00
20013;BME280;10167;42.852;23.042;2022-09-17T13:28:03;93791.47;;;20.49;100.00
20013;BME280;10167;42.852;23.042;2022-09-17T13:30:56;93787.22;;;20.48;100.00